Bobville, Texas
Current Conditions -  °F | °C
As of 4:53 PM on Thursday 20 Nov 2014 (Local Time) from KDWH Reporting Station
Light Rain Light Rain  
Wind Chill: 67°   Ceiling: 4200
Heat Index: 67°   Visibility: 8mi
Dew Point: 55°   Wind: 8mph
Humidity: 66%   Direction: 150°SSE
Pressure: 30.08"   Gusts: NA
Location:  30.3479°N, 95.7825°W
Report Text: KDWH 202253Z 15007KT 8SM -RA OVC042 19/13 A3008 RMK AO2 RAB49 SLP185 P0000 T01940128
Loading
Personal Weather Stations






























Interactive Weather Map New forecast layout! Learn more

10-Day Weather Forecast

Advertisements
Track Severe Weather on mobile